Time;durP1;ratioP1;P1;durP2;ratioP2;P2;SDS_P1;SDS_P2;PMS_P1;PMS_P2;Temp;Humidity;BMP_temperature;BMP_pressure;BME280_temperature;BME280_humidity;BME280_pressure;Samples;Min_cycle;Max_cycle;Signal;HPM_P1;HPM_P2
2022/07/04 00:02:09;;;;;;;8.27;3.70;;;;;;;15.27;73.68;101937.09;4992158;28;20054;-67
2022/07/04 00:04:35;;;;;;;6.90;3.53;;;;;;;15.33;74.15;101947.84;5001960;28;20037;-69
2022/07/04 00:07:00;;;;;;;6.28;3.70;;;;;;;15.39;73.74;101947.34;5000661;28;20037;-67
2022/07/04 00:09:25;;;;;;;7.85;3.70;;;;;;;15.33;74.20;101937.41;5014051;28;20593;-67
2022/07/04 00:11:51;;;;;;;7.75;3.92;;;;;;;15.26;74.25;101940.66;5002798;28;20023;-68
2022/07/04 00:14:16;;;;;;;8.60;4.28;;;;;;;15.28;74.12;101929.13;4999503;28;20061;-66
2022/07/04 00:16:42;;;;;;;7.05;3.60;;;;;;;15.14;75.22;101926.84;5005859;28;20040;-67
2022/07/04 00:19:07;;;;;;;7.40;4.10;;;;;;;15.33;74.30;101941.81;5002948;28;20526;-67
2022/07/04 00:21:32;;;;;;;8.52;3.80;;;;;;;15.24;74.76;101935.53;5002065;28;20072;-67
2022/07/04 00:23:58;;;;;;;7.38;3.83;;;;;;;15.29;74.48;101941.22;4996753;28;20072;-67
2022/07/04 00:26:24;;;;;;;6.40;3.97;;;;;;;15.09;74.88;101927.22;5005928;28;20025;-67
2022/07/04 00:28:49;;;;;;;7.07;3.90;;;;;;;15.22;74.50;101928.81;5009696;28;20072;-68
2022/07/04 00:31:15;;;;;;;6.40;3.78;;;;;;;15.12;74.50;101924.34;5007564;28;20030;-67
2022/07/04 00:33:40;;;;;;;8.48;3.55;;;;;;;15.15;74.50;101933.72;4997295;28;20112;-66
2022/07/04 00:36:05;;;;;;;7.47;4.38;;;;;;;15.09;74.55;101934.22;5005007;28;20381;-67
2022/07/04 00:38:31;;;;;;;7.65;4.35;;;;;;;15.17;75.23;101926.56;5009052;28;20029;-67
2022/07/04 00:40:57;;;;;;;7.45;4.93;;;;;;;15.16;74.91;101930.16;4991805;28;20050;-68
2022/07/04 00:43:24;;;;;;;7.90;5.25;;;;;;;15.08;74.74;101912.50;4998424;28;20068;-67
2022/07/04 00:45:50;;;;;;;9.63;5.68;;;;;;;15.13;74.49;101919.94;4993110;28;20029;-68
2022/07/04 00:48:15;;;;;;;8.57;5.43;;;;;;;15.03;75.24;101919.06;4989319;28;20030;-67
2022/07/04 00:50:42;;;;;;;8.75;6.15;;;;;;;15.04;75.36;101925.94;5006822;28;20112;-69
2022/07/04 00:53:08;;;;;;;8.85;6.60;;;;;;;14.97;75.81;101930.03;4997621;28;20034;-67
2022/07/04 00:55:33;;;;;;;9.50;7.32;;;;;;;14.93;75.91;101933.84;5000122;28;20398;-69
2022/07/04 00:57:59;;;;;;;10.60;7.57;;;;;;;14.90;75.60;101929.69;5004255;28;20034;-67
2022/07/04 01:00:24;;;;;;;10.05;7.65;;;;;;;15.01;75.54;101931.41;4997152;28;20363;-68
2022/07/04 01:02:50;;;;;;;10.13;7.85;;;;;;;14.73;76.10;101928.44;5005515;28;20065;-68
2022/07/04 01:05:16;;;;;;;8.50;7.60;;;;;;;14.93;75.21;101918.16;5004031;28;20057;-67
2022/07/04 01:07:42;;;;;;;10.60;8.38;;;;;;;15.02;74.80;101922.59;5003205;28;20510;-68
2022/07/04 01:10:08;;;;;;;10.23;8.77;;;;;;;14.94;75.17;101930.25;5005639;28;20488;-68
2022/07/04 01:12:35;;;;;;;12.55;8.30;;;;;;;14.84;75.33;101930.19;4999382;28;20049;-67
2022/07/04 01:15:00;;;;;;;12.27;8.82;;;;;;;14.83;75.06;101923.31;5004178;28;20018;-67
2022/07/04 01:17:26;;;;;;;10.52;8.07;;;;;;;14.85;75.13;101931.84;4999725;28;20022;-68
2022/07/04 01:19:51;;;;;;;10.35;8.63;;;;;;;14.85;75.28;101937.91;5001988;28;20025;-68
2022/07/04 01:22:19;;;;;;;10.63;8.50;;;;;;;14.85;75.90;101927.47;5007715;28;20033;-68
2022/07/04 01:24:44;;;;;;;9.43;8.43;;;;;;;14.83;75.74;101921.53;5001756;28;20030;-67
2022/07/04 01:27:10;;;;;;;10.07;8.32;;;;;;;14.84;75.73;101920.56;5006157;28;20029;-68
2022/07/04 01:29:35;;;;;;;10.52;8.63;;;;;;;14.85;75.34;101911.78;4999208;28;20034;-67
2022/07/04 01:32:05;;;;;;;9.45;8.45;;;;;;;14.83;75.78;101913.69;5001990;28;20036;-67
2022/07/04 01:34:30;;;;;;;10.48;8.05;;;;;;;14.85;74.74;101900.50;4997896;28;20060;-67
2022/07/04 01:36:56;;;;;;;9.43;7.75;;;;;;;14.77;74.56;101901.13;5004985;28;20021;-67
2022/07/04 01:39:21;;;;;;;10.40;7.72;;;;;;;14.71;74.62;101913.88;5005055;28;20061;-69
2022/07/04 01:41:46;;;;;;;9.13;7.85;;;;;;;14.56;74.65;101900.25;4995117;28;20309;-67
2022/07/04 01:44:12;;;;;;;12.35;8.02;;;;;;;14.53;74.69;101900.53;5002955;28;20062;-68
2022/07/04 01:46:37;;;;;;;8.93;7.85;;;;;;;14.35;75.73;101911.47;5008846;28;20084;-71
2022/07/04 01:49:03;;;;;;;9.27;7.90;;;;;;;14.25;75.89;101913.16;5003560;28;20041;-67
2022/07/04 01:51:28;;;;;;;9.30;8.18;;;;;;;14.28;76.35;101907.72;4995311;28;20097;-67
2022/07/04 01:53:53;;;;;;;8.07;7.03;;;;;;;14.35;75.79;101908.03;4999097;28;20033;-69
2022/07/04 01:56:19;;;;;;;8.52;6.45;;;;;;;14.31;75.76;101906.63;4998666;28;20049;-68
2022/07/04 01:58:44;;;;;;;8.52;6.22;;;;;;;14.25;75.48;101902.72;5006465;28;20044;-68
2022/07/04 02:03:53;;;;;;;7.70;6.20;;;;;;;14.25;75.25;101905.31;5001757;28;20521;-68
2022/07/04 02:06:19;;;;;;;8.70;6.70;;;;;;;14.23;75.12;101899.41;5005542;28;20022;-67
2022/07/04 02:11:28;;;;;;;6.90;6.00;;;;;;;14.16;74.87;101903.44;5003828;28;20065;-68
2022/07/04 02:13:53;;;;;;;8.55;6.10;;;;;;;14.06;74.72;101890.31;4996894;28;20030;-67
2022/07/04 02:16:19;;;;;;;7.43;5.97;;;;;;;14.09;74.91;101902.28;4994732;28;20057;-68
2022/07/04 02:18:47;;;;;;;7.30;6.03;;;;;;;14.03;74.75;101902.75;4990229;28;20859;-68
2022/07/04 02:21:13;;;;;;;8.02;5.93;;;;;;;13.98;74.74;101899.69;5009613;28;20021;-69
2022/07/04 02:23:38;;;;;;;7.40;5.78;;;;;;;13.92;74.88;101887.13;5000889;28;20037;-68
2022/07/04 02:26:04;;;;;;;9.52;6.20;;;;;;;13.86;75.10;101879.78;5000932;28;20030;-68
2022/07/04 02:28:29;;;;;;;7.60;5.78;;;;;;;13.80;74.67;101881.94;4995005;28;20022;-69
2022/07/04 02:30:54;;;;;;;7.10;5.75;;;;;;;13.81;75.20;101888.78;4997184;28;20097;-68
2022/07/04 02:33:20;;;;;;;9.27;5.88;;;;;;;13.72;75.27;101884.31;5004963;28;20133;-69
2022/07/04 02:35:45;;;;;;;7.68;5.88;;;;;;;13.60;75.46;101894.88;5004470;28;20022;-70
2022/07/04 02:38:10;;;;;;;6.57;5.40;;;;;;;13.53;75.89;101874.50;5006450;28;20145;-68
2022/07/04 02:40:36;;;;;;;7.63;5.50;;;;;;;13.56;76.01;101883.84;4988848;28;20045;-67
2022/07/04 02:43:01;;;;;;;7.07;5.57;;;;;;;13.54;76.78;101885.75;4995909;28;20028;-68
2022/07/04 02:45:26;;;;;;;8.20;5.78;;;;;;;13.62;75.67;101898.19;5005809;28;20053;-68
2022/07/04 02:47:52;;;;;;;8.35;6.20;;;;;;;13.52;76.33;101885.84;5006518;28;20500;-68
2022/07/04 02:50:17;;;;;;;8.02;5.95;;;;;;;13.63;76.37;101895.44;4994832;28;20033;-68
2022/07/04 02:52:42;;;;;;;7.50;5.93;;;;;;;13.52;75.73;101882.41;4991484;28;20067;-68
2022/07/04 02:55:08;;;;;;;6.63;5.72;;;;;;;13.54;75.98;101906.59;5006096;28;20580;-68
2022/07/04 02:57:37;;;;;;;8.60;6.28;;;;;;;13.53;75.93;101890.13;4989832;28;21412;-67
2022/07/04 03:00:03;;;;;;;8.23;6.03;;;;;;;13.61;75.70;101892.13;4995772;28;20058;-67
2022/07/04 03:02:28;;;;;;;7.97;6.07;;;;;;;13.53;76.08;101889.28;5003529;28;20108;-70
2022/07/04 03:04:53;;;;;;;8.32;6.20;;;;;;;13.64;75.83;101897.09;5005852;28;20029;-68
2022/07/04 03:07:19;;;;;;;8.50;6.05;;;;;;;13.59;76.32;101894.03;5005241;28;20462;-68
2022/07/04 03:09:44;;;;;;;7.40;6.18;;;;;;;13.53;76.52;101910.97;4991792;28;20084;-68
2022/07/04 03:12:09;;;;;;;9.52;6.20;;;;;;;13.40;77.06;101909.41;4995532;28;20526;-68
2022/07/04 03:14:35;;;;;;;8.48;6.35;;;;;;;13.19;77.77;101911.81;4987283;28;20613;-69
2022/07/04 03:17:00;;;;;;;8.95;6.57;;;;;;;13.21;77.40;101910.81;4987227;28;20037;-68
2022/07/04 03:19:26;;;;;;;8.73;6.50;;;;;;;13.24;77.19;101915.78;4997915;28;20890;-68
2022/07/04 03:21:51;;;;;;;8.10;5.85;;;;;;;13.23;77.02;101903.69;5003429;28;20037;-68
2022/07/04 03:24:16;;;;;;;6.93;5.88;;;;;;;13.35;76.87;101906.31;4992700;28;20033;-68
2022/07/04 03:26:42;;;;;;;7.68;6.25;;;;;;;13.35;77.14;101908.94;4999669;28;20471;-68
2022/07/04 03:29:07;;;;;;;7.60;5.75;;;;;;;13.37;76.57;101917.47;5002930;28;20026;-68
2022/07/04 03:31:32;;;;;;;7.72;5.70;;;;;;;13.32;76.12;101922.22;5005078;28;20370;-68
2022/07/04 03:33:58;;;;;;;8.50;6.15;;;;;;;13.30;76.23;101924.91;5000365;28;20029;-68
2022/07/04 03:36:23;;;;;;;8.35;5.50;;;;;;;13.21;76.88;101920.41;4992713;28;20529;-68
2022/07/04 03:38:49;;;;;;;7.90;5.75;;;;;;;13.28;76.04;101927.63;4998246;28;20033;-68
2022/07/04 03:41:14;;;;;;;7.78;6.05;;;;;;;13.22;76.72;101928.09;4986771;28;20035;-69
2022/07/04 03:43:39;;;;;;;8.55;6.13;;;;;;;13.23;76.63;101918.50;4999648;28;20478;-70
2022/07/04 03:46:05;;;;;;;9.55;6.13;;;;;;;13.31;76.30;101930.97;5009301;28;20116;-68
2022/07/04 03:48:30;;;;;;;8.38;6.40;;;;;;;13.32;76.29;101932.63;5005100;28;20049;-68
2022/07/04 03:50:56;;;;;;;9.25;6.40;;;;;;;13.32;76.56;101943.06;4999875;28;20026;-68
2022/07/04 03:53:21;;;;;;;8.90;6.43;;;;;;;13.36;76.34;101941.84;4990327;28;20406;-68
2022/07/04 03:55:47;;;;;;;8.25;6.15;;;;;;;13.37;76.37;101946.16;4995637;28;20079;-69
2022/07/04 03:58:13;;;;;;;7.88;6.43;;;;;;;13.29;77.03;101944.94;4998261;28;20033;-68
2022/07/04 04:00:38;;;;;;;9.05;6.43;;;;;;;13.32;76.83;101950.88;4994141;28;20041;-69
2022/07/04 04:05:26;;;;;;;7.75;6.20;;;;;;;13.28;77.55;101958.91;4996579;28;20065;-68
2022/07/04 04:05:49;;;;;;;8.95;6.40;;;;;;;13.36;76.74;101952.28;4999994;28;20038;-69
2022/07/04 04:08:14;;;;;;;9.60;6.80;;;;;;;13.43;77.13;101956.09;4991248;28;20025;-68
2022/07/04 04:10:39;;;;;;;7.45;6.43;;;;;;;13.43;77.49;101953.50;5005021;28;20028;-68
2022/07/04 04:13:05;;;;;;;8.25;6.40;;;;;;;13.38;77.34;101939.97;5003939;28;20049;-68
2022/07/04 04:15:30;;;;;;;9.85;6.25;;;;;;;13.49;77.59;101956.47;5001106;28;20040;-68
2022/07/04 04:17:56;;;;;;;10.57;6.50;;;;;;;13.41;77.61;101948.38;4994219;28;20032;-67
2022/07/04 04:20:21;;;;;;;8.80;6.40;;;;;;;13.48;77.59;101953.97;5003698;28;20438;-68
2022/07/04 04:22:46;;;;;;;9.88;6.50;;;;;;;13.46;77.96;101958.47;5003060;28;20370;-66
2022/07/04 04:25:12;;;;;;;8.00;6.45;;;;;;;13.52;77.65;101965.81;4996678;28;20485;-67
2022/07/04 04:27:37;;;;;;;8.63;6.53;;;;;;;13.54;77.89;101963.94;4996519;28;20053;-67
2022/07/04 04:30:04;;;;;;;9.02;7.07;;;;;;;13.57;78.09;101966.31;5003946;28;20014;-67
2022/07/04 04:32:29;;;;;;;8.88;6.60;;;;;;;13.60;78.07;101955.66;5004606;28;20022;-67
2022/07/04 04:34:54;;;;;;;11.43;6.93;;;;;;;13.59;77.92;101945.31;5006219;28;20040;-67
2022/07/04 04:37:20;;;;;;;9.90;6.82;;;;;;;13.61;77.96;101939.06;5002375;28;20029;-67
2022/07/04 04:39:45;;;;;;;9.35;6.75;;;;;;;13.73;78.42;101952.94;4992194;28;20026;-67
2022/07/04 04:42:11;;;;;;;10.32;6.45;;;;;;;13.73;78.57;101952.94;4992041;28;20022;-66
2022/07/04 04:44:36;;;;;;;9.15;6.50;;;;;;;13.80;78.48;101954.09;5002327;28;20516;-68
2022/07/04 04:47:01;;;;;;;8.60;6.65;;;;;;;13.78;78.46;101941.19;5002822;28;20036;-67
2022/07/04 04:49:27;;;;;;;10.70;6.55;;;;;;;13.84;78.32;101960.75;5002835;28;20022;-67
2022/07/04 04:51:52;;;;;;;10.85;6.25;;;;;;;13.90;78.39;101954.25;5000352;28;20064;-67
2022/07/04 04:54:17;;;;;;;11.35;7.05;;;;;;;13.91;78.74;101945.47;5006508;28;20533;-67
2022/07/04 04:56:43;;;;;;;8.93;6.57;;;;;;;13.93;78.83;101949.59;5009181;28;20025;-67
2022/07/04 04:59:09;;;;;;;10.32;6.50;;;;;;;13.98;78.68;101957.06;5005777;28;20398;-67
2022/07/04 05:01:35;;;;;;;10.77;6.80;;;;;;;13.97;78.54;101950.19;5002293;28;20485;-67
2022/07/04 05:04:00;;;;;;;10.48;6.70;;;;;;;13.98;78.91;101952.69;5023722;28;20038;-67
2022/07/04 05:06:26;;;;;;;9.23;6.63;;;;;;;13.89;78.90;101937.75;5002256;28;20029;-67
2022/07/04 05:08:51;;;;;;;12.48;7.25;;;;;;;13.96;79.40;101954.59;4996913;28;20029;-67
2022/07/04 05:11:16;;;;;;;11.55;7.03;;;;;;;13.89;79.57;101940.38;5002248;28;20022;-67
2022/07/04 05:13:42;;;;;;;13.85;7.78;;;;;;;14.00;79.73;101952.59;4997901;28;20022;-67
2022/07/04 05:16:07;;;;;;;11.60;7.40;;;;;;;14.00;79.58;101955.19;5004324;28;20092;-67
2022/07/04 05:18:32;;;;;;;10.30;7.43;;;;;;;14.04;79.28;101943.53;5007474;28;20045;-67
2022/07/04 05:20:59;;;;;;;11.43;8.05;;;;;;;14.08;78.85;101958.00;4996661;28;20109;-66
2022/07/04 05:23:24;;;;;;;11.48;7.70;;;;;;;14.07;79.43;101954.56;5006171;28;20068;-67
2022/07/04 05:25:50;;;;;;;12.07;8.07;;;;;;;14.09;79.40;101949.22;5008327;28;20057;-67
2022/07/04 05:28:15;;;;;;;10.88;7.25;;;;;;;14.23;78.79;101962.03;5005942;28;20462;-66
2022/07/04 05:30:40;;;;;;;9.27;7.07;;;;;;;14.29;78.22;101960.72;5003950;28;20947;-66
2022/07/04 05:33:06;;;;;;;9.73;7.07;;;;;;;14.31;78.14;101962.25;5005793;28;20452;-66
2022/07/04 05:35:31;;;;;;;11.52;6.57;;;;;;;14.33;78.61;101972.56;5002227;28;20030;-66
2022/07/04 05:37:57;;;;;;;9.93;6.93;;;;;;;14.41;78.89;101979.81;4996410;28;20033;-67
2022/07/04 05:40:22;;;;;;;11.52;6.68;;;;;;;14.50;79.01;101984.31;5004833;28;20554;-66
2022/07/04 05:42:48;;;;;;;11.10;7.18;;;;;;;14.54;79.60;101977.91;4994944;28;20053;-66
2022/07/04 05:45:14;;;;;;;12.65;7.65;;;;;;;14.56;79.88;101989.84;4988321;28;20026;-67
2022/07/04 05:47:39;;;;;;;11.90;7.32;;;;;;;14.63;78.63;101990.22;4995929;28;20029;-66
2022/07/04 05:50:05;;;;;;;11.55;6.97;;;;;;;14.72;78.27;101989.47;5006111;28;20033;-66
2022/07/04 05:52:31;;;;;;;10.23;6.90;;;;;;;14.70;77.97;101991.38;4994046;28;20030;-66
2022/07/04 05:54:56;;;;;;;9.35;7.13;;;;;;;14.72;78.17;101989.47;4995396;28;20477;-67
2022/07/04 05:57:21;;;;;;;9.82;6.47;;;;;;;14.81;77.18;101999.19;5000261;28;20466;-66
2022/07/04 05:59:47;;;;;;;11.25;7.05;;;;;;;14.83;77.56;101994.66;4998087;28;20061;-67
2022/07/04 06:02:13;;;;;;;10.68;7.15;;;;;;;14.85;77.60;101987.53;4991157;28;20070;-68
2022/07/04 06:04:38;;;;;;;10.80;6.93;;;;;;;14.69;78.57;101984.50;4993788;28;20741;-70
2022/07/04 06:07:03;;;;;;;9.75;7.35;;;;;;;14.83;77.35;101965.91;4997616;28;20034;-66
2022/07/04 06:09:29;;;;;;;10.85;6.82;;;;;;;14.98;76.84;101978.69;5000994;28;20542;-66
2022/07/04 06:11:54;;;;;;;13.38;7.28;;;;;;;15.10;76.60;101982.91;4993385;28;20108;-66
2022/07/04 06:14:19;;;;;;;10.25;6.80;;;;;;;15.12;76.69;101973.97;4992871;28;20022;-66
2022/07/04 06:16:45;;;;;;;9.63;6.70;;;;;;;15.24;76.13;101979.97;4989244;28;20092;-66
2022/07/04 06:19:10;;;;;;;10.18;7.07;;;;;;;15.27;76.21;101974.50;4998226;28;20026;-66
2022/07/04 06:21:36;;;;;;;10.95;6.80;;;;;;;15.41;76.32;101976.78;5001435;28;20040;-67
2022/07/04 06:24:02;;;;;;;10.65;7.07;;;;;;;15.39;76.84;101978.72;4997513;28;20113;-66
2022/07/04 06:26:29;;;;;;;10.57;6.82;;;;;;;15.55;75.10;101980.06;4992093;28;20030;-68
2022/07/04 06:28:55;;;;;;;9.63;6.50;;;;;;;15.56;74.68;101973.84;4993806;28;20542;-66
2022/07/04 06:31:20;;;;;;;10.52;6.93;;;;;;;15.63;74.25;101975.03;4996650;28;20117;-69
2022/07/04 06:36:30;;;;;;;10.77;6.75;;;;;;;15.71;74.69;101972.56;5006776;28;20036;-68
2022/07/04 06:38:55;;;;;;;11.63;7.13;;;;;;;15.66;75.31;101974.78;4993560;28;20030;-66
2022/07/04 06:41:21;;;;;;;10.70;6.80;;;;;;;15.71;74.98;101962.09;5005974;28;20461;-66
2022/07/04 06:43:46;;;;;;;11.57;7.10;;;;;;;15.83;75.54;101978.56;5001131;28;20453;-66
2022/07/04 06:46:11;;;;;;;11.50;7.18;;;;;;;15.96;76.23;101978.34;5001049;28;20034;-67
2022/07/04 06:48:37;;;;;;;11.05;7.35;;;;;;;15.96;75.77;101975.72;4989630;28;21325;-67
2022/07/04 06:51:03;;;;;;;11.95;7.35;;;;;;;16.12;74.95;101971.66;5003618;28;20573;-66
2022/07/04 06:53:28;;;;;;;12.60;7.47;;;;;;;16.10;74.52;101967.50;4997153;28;20030;-66
2022/07/04 06:55:53;;;;;;;12.18;7.20;;;;;;;16.13;74.37;101957.59;4999439;28;20760;-66
2022/07/04 06:58:19;;;;;;;12.13;7.47;;;;;;;16.09;75.34;101965.84;4987293;28;20496;-66
2022/07/04 07:00:44;;;;;;;14.05;7.72;;;;;;;16.25;75.81;101966.16;4998441;28;20038;-68
2022/07/04 07:03:10;;;;;;;11.73;7.90;;;;;;;16.32;75.13;101961.22;4986609;28;20117;-66
2022/07/04 07:05:36;;;;;;;13.30;7.95;;;;;;;16.42;75.00;101978.59;4998724;28;20033;-66
2022/07/04 07:08:03;;;;;;;14.95;7.75;;;;;;;16.44;75.60;101981.91;4991317;28;20085;-67
2022/07/04 07:10:28;;;;;;;11.43;7.82;;;;;;;16.56;74.67;101984.41;4987720;28;20041;-68
2022/07/04 07:12:54;;;;;;;12.23;7.60;;;;;;;16.61;74.74;101979.59;4989050;28;20026;-66
2022/07/04 07:15:19;;;;;;;14.10;7.85;;;;;;;16.66;74.88;101974.78;5005476;28;20022;-66
2022/07/04 07:17:45;;;;;;;15.38;9.18;;;;;;;16.51;75.61;101973.50;4991399;28;20390;-67
2022/07/04 07:20:11;;;;;;;12.73;8.48;;;;;;;16.67;76.03;101976.44;4993146;28;20389;-67
2022/07/04 07:22:36;;;;;;;13.73;9.07;;;;;;;16.72;74.93;101961.16;4993896;28;20030;-67
2022/07/04 07:25:02;;;;;;;14.73;9.48;;;;;;;16.95;75.20;101980.88;4987264;28;20458;-67
2022/07/04 07:27:27;;;;;;;17.77;10.75;;;;;;;17.00;75.31;101967.38;4997101;28;20041;-66
2022/07/04 07:29:53;;;;;;;14.57;9.77;;;;;;;17.22;76.49;101968.84;4998383;28;20457;-66
2022/07/04 07:32:18;;;;;;;15.50;10.32;;;;;;;17.17;76.97;101968.44;5004665;28;20068;-66
2022/07/04 07:34:43;;;;;;;16.02;10.10;;;;;;;17.24;77.34;101974.78;5005933;28;20112;-66
2022/07/04 07:37:09;;;;;;;18.17;10.60;;;;;;;17.30;76.66;101968.97;4989852;28;20842;-67
2022/07/04 07:39:35;;;;;;;16.50;11.30;;;;;;;17.31;77.29;101970.63;4994648;28;20380;-67
2022/07/04 07:42:00;;;;;;;16.80;10.93;;;;;;;17.34;77.23;101954.63;5004037;28;20132;-66
2022/07/04 07:44:26;;;;;;;17.17;10.32;;;;;;;17.46;76.38;101963.97;4993142;28;20030;-67
2022/07/04 07:46:51;;;;;;;14.70;10.70;;;;;;;17.38;74.95;101958.63;4994015;28;20064;-67
2022/07/04 07:49:17;;;;;;;16.67;9.98;;;;;;;17.40;75.96;101959.28;4991369;28;20034;-66
2022/07/04 07:51:42;;;;;;;16.88;10.88;;;;;;;17.42;75.88;101959.97;5004533;28;20024;-66
2022/07/04 07:54:08;;;;;;;16.50;10.10;;;;;;;17.63;75.75;101970.28;5002581;28;20056;-68
2022/07/04 07:56:33;;;;;;;17.60;10.65;;;;;;;17.60;75.95;101961.84;4996927;28;20065;-68
2022/07/04 07:58:58;;;;;;;15.20;11.25;;;;;;;17.79;74.55;101959.19;4999875;28;20474;-67
2022/07/04 08:01:24;;;;;;;15.18;11.20;;;;;;;17.92;75.35;101970.19;4999489;28;20038;-66
2022/07/04 08:06:33;;;;;;;14.43;10.90;;;;;;;18.18;73.78;101974.75;5005253;28;20382;-66
2022/07/04 08:08:59;;;;;;;15.45;11.05;;;;;;;18.23;73.19;101962.00;4995577;28;20026;-67
2022/07/04 08:11:25;;;;;;;14.93;10.30;;;;;;;18.30;72.95;101978.84;4994316;28;20470;-66
2022/07/04 08:13:50;;;;;;;16.30;10.52;;;;;;;18.28;74.29;101981.59;5009799;28;20537;-66
2022/07/04 08:16:16;;;;;;;13.82;9.95;;;;;;;18.41;73.06;101985.66;5006044;28;21131;-67
2022/07/04 08:18:41;;;;;;;16.17;10.73;;;;;;;18.33;74.30;101968.03;4991046;28;20030;-66
2022/07/04 08:21:07;;;;;;;17.08;11.48;;;;;;;18.50;72.53;101980.34;5003697;28;20030;-68
2022/07/04 08:23:33;;;;;;;14.50;9.90;;;;;;;18.63;72.70;101979.16;4990875;28;20030;-66
2022/07/04 08:26:00;;;;;;;15.48;10.48;;;;;;;18.58;73.06;101983.09;4992766;28;20029;-66
2022/07/04 08:28:27;;;;;;;14.85;10.27;;;;;;;18.62;72.73;101977.50;4995681;28;20096;-66
2022/07/04 08:30:52;;;;;;;17.67;10.60;;;;;;;18.56;73.25;101990.25;5002470;28;20017;-66
2022/07/04 08:33:18;;;;;;;15.55;9.88;;;;;;;18.58;73.23;101977.81;4996637;28;20052;-67
2022/07/04 08:35:43;;;;;;;17.00;10.63;;;;;;;18.71;73.50;101990.63;5009055;28;20037;-67
2022/07/04 08:38:09;;;;;;;17.02;10.60;;;;;;;18.76;72.82;101987.53;4999198;28;20105;-67
2022/07/04 08:40:34;;;;;;;15.07;9.60;;;;;;;18.96;72.03;101996.09;4989857;28;20886;-69
2022/07/04 08:43:02;;;;;;;14.63;9.00;;;;;;;19.14;72.81;101996.06;4997022;28;20834;-66
2022/07/04 08:45:33;;;;;;;17.38;9.95;;;;;;;19.20;72.19;101987.56;5008232;28;20040;-66
2022/07/04 08:48:06;;;;;;;15.13;11.20;;;;;;;19.09;72.47;101981.56;5009185;28;20025;-66
2022/07/04 08:50:35;;;;;;;13.90;9.02;;;;;;;19.41;71.73;101985.41;5007567;28;20060;-69
2022/07/04 08:53:10;;;;;;;13.95;8.68;;;;;;;19.48;69.50;101975.91;5003354;28;20059;-66
2022/07/04 08:58:31;;;;;;;13.52;8.07;;;;;;;19.59;70.17;101978.31;4994472;28;20080;-66
2022/07/04 09:01:04;;;;;;;14.15;7.00;;;;;;;19.65;68.70;101986.56;5022161;28;20385;-66
2022/07/04 09:03:31;;;;;;;10.13;5.70;;;;;;;19.58;69.18;101976.66;4998040;28;20057;-66
2022/07/04 09:05:57;;;;;;;13.18;5.70;;;;;;;19.79;67.71;101983.38;5000811;28;20034;-68
2022/07/04 09:08:23;;;;;;;11.65;5.65;;;;;;;19.86;69.20;101982.56;4996900;28;20022;-67
2022/07/04 09:10:50;;;;;;;12.57;5.10;;;;;;;19.77;66.99;101996.66;5006746;28;20029;-67
2022/07/04 09:13:17;;;;;;;10.90;4.22;;;;;;;19.44;66.42;101995.66;5007472;28;20026;-70
2022/07/04 09:15:45;;;;;;;9.98;4.40;;;;;;;19.49;68.31;101992.53;5008182;28;20077;-67
2022/07/04 09:18:28;;;;;;;11.33;5.03;;;;;;;19.50;67.63;101994.19;5006496;28;20029;-66
2022/07/04 09:21:21;;;;;;;11.43;4.70;;;;;;;19.30;68.38;101985.66;5008145;28;20026;-67
2022/07/04 09:23:46;;;;;;;9.07;4.40;;;;;;;19.27;69.01;101986.81;4989761;28;20399;-67
2022/07/04 09:26:17;;;;;;;10.50;5.28;;;;;;;19.31;69.32;101989.94;5001445;28;20054;-67
2022/07/04 09:28:56;;;;;;;13.27;5.15;;;;;;;19.32;69.62;102002.94;4999701;28;20018;-67
2022/07/04 09:31:27;;;;;;;11.07;5.13;;;;;;;19.47;67.67;101992.69;5000732;28;20087;-67
2022/07/04 09:33:55;;;;;;;12.85;5.70;;;;;;;19.66;68.79;101988.22;4992819;28;20023;-67
2022/07/04 09:36:22;;;;;;;10.90;4.87;;;;;;;19.86;67.98;101994.91;4999504;28;20522;-67
2022/07/04 09:39:18;;;;;;;10.57;4.53;;;;;;;20.04;66.98;101987.75;5003379;28;20269;-67
2022/07/04 09:42:03;;;;;;;8.82;5.32;;;;;;;19.96;66.77;101987.72;5000134;28;20021;-67
2022/07/04 09:44:44;;;;;;;9.38;5.43;;;;;;;20.01;65.44;101977.50;4998472;28;20042;-67
2022/07/04 09:47:25;;;;;;;11.77;5.00;;;;;;;19.93;66.41;101988.03;4994427;28;20029;-67
2022/07/04 09:50:05;;;;;;;10.43;5.20;;;;;;;20.34;66.28;101988.16;5008020;28;20033;-67
2022/07/04 09:52:31;;;;;;;11.25;5.20;;;;;;;20.53;65.32;101987.06;4993086;28;20033;-67
2022/07/04 09:55:02;;;;;;;10.05;4.85;;;;;;;20.70;65.07;101991.38;5007776;28;20374;-67
2022/07/04 09:57:29;;;;;;;8.82;4.45;;;;;;;20.90;63.72;101989.28;4991521;28;20498;-67
2022/07/04 09:59:55;;;;;;;10.40;4.65;;;;;;;20.96;64.93;101988.59;5004051;28;20034;-67
2022/07/04 10:02:20;;;;;;;8.45;4.55;;;;;;;20.87;63.35;101989.59;5007601;28;20482;-68
2022/07/04 10:04:48;;;;;;;8.68;4.20;;;;;;;20.72;61.90;101988.59;4990066;28;20041;-67
2022/07/04 10:07:40;;;;;;;9.82;4.93;;;;;;;20.65;63.00;101986.63;4988645;28;20026;-67
2022/07/04 10:10:35;;;;;;;9.32;4.45;;;;;;;20.52;63.46;101986.25;4996425;28;20033;-67
2022/07/04 10:13:11;;;;;;;8.23;4.05;;;;;;;20.68;62.72;101974.91;5005207;28;20144;-67
2022/07/04 10:15:39;;;;;;;9.18;4.47;;;;;;;20.83;63.83;101983.00;5007021;28;20046;-66
2022/07/04 10:18:07;;;;;;;8.90;4.28;;;;;;;21.01;61.49;101970.47;5000515;28;20049;-70
2022/07/04 10:20:33;;;;;;;8.82;3.92;;;;;;;20.99;62.34;101977.75;5005997;28;20048;-67
2022/07/04 10:22:59;;;;;;;7.40;3.78;;;;;;;20.95;61.26;101960.59;5004151;28;20470;-69
2022/07/04 10:25:25;;;;;;;8.82;3.90;;;;;;;20.86;60.01;101974.75;4987811;28;20026;-68
2022/07/04 10:27:51;;;;;;;7.95;3.72;;;;;;;20.79;60.57;101971.13;4999204;28;20109;-68
2022/07/04 10:30:37;;;;;;;7.40;3.60;;;;;;;21.06;61.63;101984.00;4992534;28;20030;-66
2022/07/04 10:33:08;;;;;;;7.88;3.40;;;;;;;21.13;61.90;101969.16;5004941;28;20317;-69
2022/07/04 10:35:56;;;;;;;8.90;3.72;;;;;;;21.31;60.97;101965.53;5002307;28;20734;-66
2022/07/04 10:38:21;;;;;;;9.77;3.88;;;;;;;21.31;58.59;101960.25;5006811;28;20048;-66
2022/07/04 10:40:48;;;;;;;11.45;3.75;;;;;;;21.31;57.76;101962.88;5001925;28;20042;-67
2022/07/04 10:43:33;;;;;;;7.57;2.95;;;;;;;21.29;58.43;101968.34;5003265;28;20158;-70
2022/07/04 10:46:01;;;;;;;6.03;3.15;;;;;;;21.56;58.79;101958.34;4992106;28;20025;-68
2022/07/04 10:48:27;;;;;;;5.72;3.03;;;;;;;21.63;57.07;101965.44;5006277;28;20026;-66
2022/07/04 10:51:03;;;;;;;6.95;3.10;;;;;;;21.71;57.39;101952.19;4990435;28;20350;-69
2022/07/04 10:53:30;;;;;;;7.65;3.00;;;;;;;21.83;57.42;101965.03;5006711;28;20049;-68
2022/07/04 10:56:14;;;;;;;8.93;3.20;;;;;;;21.91;56.86;101957.09;5003025;28;20040;-67
2022/07/04 10:58:40;;;;;;;6.18;2.47;;;;;;;22.00;55.77;101956.84;4996910;28;20033;-67
2022/07/04 11:01:16;;;;;;;6.93;2.20;;;;;;;22.01;55.15;101960.31;4992263;28;20049;-71
2022/07/04 11:03:50;;;;;;;7.68;2.60;;;;;;;22.14;55.31;101963.28;5006366;28;20120;-66
2022/07/04 11:06:42;;;;;;;5.90;2.40;;;;;;;22.40;56.13;101956.84;4989171;28;20486;-69
2022/07/04 11:09:19;;;;;;;6.18;2.67;;;;;;;22.25;54.86;101954.97;5000378;28;20050;-70
2022/07/04 11:12:03;;;;;;;7.47;2.67;;;;;;;21.99;54.21;101967.59;4999664;28;20034;-68
2022/07/04 11:14:42;;;;;;;5.60;2.20;;;;;;;21.61;54.49;101956.84;5000402;28;20056;-67
2022/07/04 11:17:09;;;;;;;6.63;2.60;;;;;;;21.24;52.60;101956.59;4996640;28;20116;-67
2022/07/04 11:19:35;;;;;;;6.70;2.42;;;;;;;21.40;55.29;101959.25;4998279;28;20025;-70
2022/07/04 11:22:00;;;;;;;4.05;1.83;;;;;;;21.54;55.54;101961.16;4988022;28;20026;-70
2022/07/04 11:24:27;;;;;;;4.97;1.90;;;;;;;21.81;52.59;101949.38;5002640;28;20040;-67
2022/07/04 11:26:53;;;;;;;5.20;1.83;;;;;;;22.01;52.86;101947.94;4999490;28;20030;-67
2022/07/04 11:29:19;;;;;;;4.75;1.98;;;;;;;22.13;53.61;101961.59;5002715;28;20030;-67
2022/07/04 11:31:46;;;;;;;5.20;1.98;;;;;;;21.90;54.02;101960.72;5000240;28;20030;-67
2022/07/04 11:34:12;;;;;;;4.57;1.90;;;;;;;21.93;52.03;101952.44;4992667;28;20068;-67
2022/07/04 11:36:39;;;;;;;3.25;1.45;;;;;;;22.16;53.87;101940.13;5006138;28;20489;-67